createdAt,value
2023-03-22T00:00:24.777Z,8.55
2023-03-22T00:00:54.774Z,8.53
2023-03-22T00:01:24.791Z,8.55
2023-03-22T00:01:54.778Z,8.5
2023-03-22T00:02:24.816Z,8.56
2023-03-22T00:02:54.851Z,8.66
2023-03-22T00:03:24.800Z,8.73
2023-03-22T00:03:54.833Z,8.74
2023-03-22T00:04:24.786Z,8.67
2023-03-22T00:04:54.780Z,8.63
2023-03-22T00:05:24.771Z,8.64
2023-03-22T00:05:54.771Z,8.62
2023-03-22T00:06:24.774Z,8.63
2023-03-22T00:06:54.780Z,8.67
2023-03-22T00:07:24.783Z,8.69
2023-03-22T00:07:54.774Z,8.76
2023-03-22T00:08:24.771Z,8.82
2023-03-22T00:08:54.772Z,8.8
2023-03-22T00:09:24.794Z,8.7
2023-03-22T00:09:54.771Z,8.56
2023-03-22T00:10:24.774Z,8.55
2023-03-22T00:10:54.773Z,8.59
2023-03-22T00:11:24.772Z,8.67
2023-03-22T00:11:54.773Z,8.77
2023-03-22T00:12:24.770Z,8.87
2023-03-22T00:12:54.776Z,8.91
2023-03-22T00:13:24.775Z,8.89
2023-03-22T00:13:55.013Z,8.87
2023-03-22T00:14:24.779Z,8.84
2023-03-22T00:14:54.770Z,8.79
2023-03-22T00:15:24.802Z,8.76
2023-03-22T00:15:54.804Z,8.79
2023-03-22T00:16:24.838Z,8.85
2023-03-22T00:16:54.771Z,8.91
2023-03-22T00:17:24.774Z,8.95
2023-03-22T00:17:54.773Z,8.96
2023-03-22T00:18:24.772Z,8.93
2023-03-22T00:18:54.774Z,8.85
2023-03-22T00:19:24.772Z,8.82
2023-03-22T00:19:54.772Z,8.83
2023-03-22T00:20:24.771Z,8.84
2023-03-22T00:20:54.773Z,8.88
2023-03-22T00:21:24.775Z,8.89
2023-03-22T00:21:54.774Z,8.91
2023-03-22T00:22:24.772Z,8.88
2023-03-22T00:22:54.774Z,8.84
2023-03-22T00:23:24.772Z,8.79
2023-03-22T00:23:54.773Z,8.75
2023-03-22T00:24:24.772Z,8.74
2023-03-22T00:24:54.782Z,8.65
2023-03-22T00:25:24.775Z,8.59
2023-03-22T00:25:54.771Z,8.57
2023-03-22T00:26:24.813Z,8.5
2023-03-22T00:26:54.772Z,8.49
2023-03-22T00:27:24.772Z,8.49
2023-03-22T00:27:54.783Z,8.46
2023-03-22T00:28:24.785Z,8.41
2023-03-22T00:28:54.787Z,8.41
2023-03-22T00:29:24.775Z,8.48
2023-03-22T00:29:54.779Z,8.56
2023-03-22T00:30:24.782Z,8.63
2023-03-22T00:30:54.791Z,8.72
2023-03-22T00:31:24.785Z,8.8
2023-03-22T00:31:54.776Z,8.86
2023-03-22T00:32:24.774Z,8.79
2023-03-22T00:32:54.778Z,8.73
2023-03-22T00:33:24.778Z,8.68
2023-03-22T00:33:54.780Z,8.58
2023-03-22T00:34:24.784Z,8.47
2023-03-22T00:34:54.775Z,8.39
2023-03-22T00:35:24.815Z,8.31
2023-03-22T00:35:54.814Z,8.27
2023-03-22T00:36:24.779Z,8.3
2023-03-22T00:36:54.775Z,8.34
2023-03-22T00:37:24.776Z,8.4
2023-03-22T00:37:54.776Z,8.47
2023-03-22T00:38:35.947Z,8.45
2023-03-22T00:38:55.704Z,8.44
2023-03-22T00:39:24.779Z,8.46
2023-03-22T00:39:54.781Z,8.47
2023-03-22T00:40:24.777Z,8.5
2023-03-22T00:40:54.782Z,8.52
2023-03-22T00:41:24.779Z,8.47
2023-03-22T00:41:54.784Z,8.45
2023-03-22T00:42:24.782Z,8.42
2023-03-22T00:42:54.786Z,8.44
2023-03-22T00:43:24.785Z,8.44
2023-03-22T00:43:54.790Z,8.31
2023-03-22T00:44:24.792Z,8.25
2023-03-22T00:44:54.785Z,8.2
2023-03-22T00:45:24.777Z,8.21
2023-03-22T00:45:54.793Z,8.17
2023-03-22T00:46:24.800Z,8.11
2023-03-22T00:46:54.780Z,8.03
2023-03-22T00:47:24.779Z,8
2023-03-22T00:47:54.874Z,7.99
2023-03-22T00:48:24.877Z,8.03
2023-03-22T00:48:54.783Z,8
2023-03-22T00:49:24.782Z,7.98
2023-03-22T00:49:54.786Z,8
2023-03-22T00:50:24.780Z,8.08
2023-03-22T00:50:54.778Z,8.09
2023-03-22T00:51:24.784Z,8.07
2023-03-22T00:51:54.780Z,8.05
2023-03-22T00:52:24.785Z,8.07
2023-03-22T00:52:54.778Z,8.1
2023-03-22T00:53:24.799Z,8.12
2023-03-22T00:53:54.803Z,8.12
2023-03-22T00:54:24.789Z,8.13
2023-03-22T00:54:54.783Z,8.08
2023-03-22T00:55:24.785Z,8.03
2023-03-22T00:55:54.779Z,8.02
2023-03-22T00:56:24.786Z,8.03
2023-03-22T00:56:54.802Z,7.99
2023-03-22T00:57:24.782Z,8.04
2023-03-22T00:57:54.790Z,8.11
2023-03-22T00:58:24.808Z,8.2
2023-03-22T00:58:54.792Z,8.26
2023-03-22T00:59:24.812Z,8.32
2023-03-22T00:59:54.781Z,8.37
2023-03-22T01:00:24.789Z,8.36
2023-03-22T01:00:54.802Z,8.39
2023-03-22T01:01:24.831Z,8.43
2023-03-22T01:01:54.783Z,8.46
2023-03-22T01:02:24.782Z,8.44
2023-03-22T01:02:54.780Z,8.42
2023-03-22T01:03:24.895Z,8.3
2023-03-22T01:03:54.902Z,8.23
2023-03-22T01:04:24.781Z,8.25
2023-03-22T01:04:54.780Z,8.25
2023-03-22T01:05:24.780Z,8.23
2023-03-22T01:05:54.782Z,8.27
2023-03-22T01:06:24.780Z,8.29
2023-03-22T01:06:54.783Z,8.3
2023-03-22T01:07:24.779Z,8.33
2023-03-22T01:07:54.777Z,8.37
2023-03-22T01:08:24.774Z,8.33
2023-03-22T01:08:54.781Z,8.31
2023-03-22T01:09:24.778Z,8.29
2023-03-22T01:09:54.777Z,8.31
2023-03-22T01:10:24.778Z,8.23
2023-03-22T01:10:54.777Z,8.13
2023-03-22T01:11:24.781Z,8.02
2023-03-22T01:11:54.784Z,7.98
2023-03-22T01:12:24.788Z,7.91
2023-03-22T01:12:54.795Z,7.83
2023-03-22T01:13:24.789Z,7.78
2023-03-22T01:13:54.781Z,7.83
2023-03-22T01:14:24.778Z,7.85
2023-03-22T01:14:54.780Z,7.83
2023-03-22T01:15:24.780Z,7.79
2023-03-22T01:15:54.789Z,7.77
2023-03-22T01:16:24.859Z,7.74
2023-03-22T01:16:54.827Z,7.76
2023-03-22T01:17:24.800Z,7.8
2023-03-22T01:17:54.781Z,7.87
2023-03-22T01:18:24.779Z,7.95
2023-03-22T01:18:54.784Z,8.01
2023-03-22T01:19:24.793Z,8.01
2023-03-22T01:19:54.792Z,8.04
2023-03-22T01:20:24.782Z,8.08
2023-03-22T01:20:54.778Z,8.08
2023-03-22T01:21:24.780Z,8.02
2023-03-22T01:21:54.781Z,8.01
2023-03-22T01:22:24.779Z,7.97
2023-03-22T01:22:54.777Z,7.88
2023-03-22T01:23:24.781Z,7.81
2023-03-22T01:23:54.778Z,7.83
2023-03-22T01:24:24.778Z,7.86
2023-03-22T01:24:54.784Z,7.88
2023-03-22T01:25:24.788Z,7.83
2023-03-22T01:25:54.783Z,7.73
2023-03-22T01:26:24.780Z,7.69
2023-03-22T01:26:54.787Z,7.67
2023-03-22T01:27:24.785Z,7.68
2023-03-22T01:27:54.786Z,7.66
2023-03-22T01:28:27.069Z,7.64
2023-03-22T01:28:54.779Z,7.58
2023-03-22T01:29:24.779Z,7.49
2023-03-22T01:29:54.780Z,7.45
2023-03-22T01:30:24.850Z,7.42
2023-03-22T01:30:54.820Z,7.41
2023-03-22T01:31:24.784Z,7.41
2023-03-22T01:31:54.783Z,7.34
2023-03-22T01:32:24.778Z,7.28
2023-03-22T01:32:54.781Z,7.25
2023-03-22T01:33:24.788Z,7.22
2023-03-22T01:33:54.798Z,7.23
2023-03-22T01:34:24.811Z,7.29
2023-03-22T01:34:54.785Z,7.4
2023-03-22T01:35:24.867Z,7.53
2023-03-22T01:35:54.832Z,7.63
2023-03-22T01:36:24.786Z,7.64
2023-03-22T01:36:54.786Z,7.64
2023-03-22T01:37:24.783Z,7.63
2023-03-22T01:37:54.786Z,7.62
2023-03-22T01:38:24.788Z,7.62
2023-03-22T01:38:54.785Z,7.65
2023-03-22T01:39:24.785Z,7.59
2023-03-22T01:39:54.783Z,7.59
2023-03-22T01:40:24.782Z,7.58
2023-03-22T01:40:54.800Z,7.54
2023-03-22T01:41:24.789Z,7.49
2023-03-22T01:41:54.795Z,7.49
2023-03-22T01:42:24.787Z,7.47
2023-03-22T01:42:54.788Z,7.41
2023-03-22T01:43:24.786Z,7.4
2023-03-22T01:43:54.784Z,7.38
2023-03-22T01:44:24.784Z,7.39
2023-03-22T01:44:54.785Z,7.37
2023-03-22T01:45:24.792Z,7.34
2023-03-22T01:45:54.873Z,7.28
2023-03-22T01:46:24.830Z,7.25
2023-03-22T01:46:54.788Z,7.22
2023-03-22T01:47:24.785Z,7.15
2023-03-22T01:47:54.838Z,7.14
2023-03-22T01:48:24.825Z,7.22
2023-03-22T01:48:54.857Z,7.22
2023-03-22T01:49:24.841Z,7.27
2023-03-22T01:49:54.788Z,7.31
2023-03-22T01:50:24.784Z,7.31
2023-03-22T01:50:54.788Z,7.33
2023-03-22T01:51:24.810Z,7.34
2023-03-22T01:51:54.792Z,7.34
2023-03-22T01:52:24.785Z,7.37
2023-03-22T01:52:54.786Z,7.45
2023-03-22T01:53:24.797Z,7.52
2023-03-22T01:53:54.786Z,7.59
2023-03-22T01:54:24.789Z,7.63
2023-03-22T01:54:54.785Z,7.66
2023-03-22T01:55:24.791Z,7.7
2023-03-22T01:55:54.786Z,7.74
2023-03-22T01:56:24.793Z,7.78
2023-03-22T01:56:54.807Z,7.74
2023-03-22T01:57:24.799Z,7.7
2023-03-22T01:57:54.789Z,7.61
2023-03-22T01:58:24.790Z,7.53
2023-03-22T01:58:54.788Z,7.51
2023-03-22T01:59:24.788Z,7.49
2023-03-22T01:59:54.787Z,7.5
2023-03-22T02:00:24.789Z,7.47
2023-03-22T02:00:54.790Z,7.31
2023-03-22T02:01:24.869Z,7.27
2023-03-22T02:01:54.797Z,7.28
2023-03-22T02:02:24.829Z,7.21
2023-03-22T02:02:54.809Z,7.2
2023-03-22T02:03:24.799Z,7.23
2023-03-22T02:03:54.786Z,7.23
2023-03-22T02:04:24.788Z,7.23
2023-03-22T02:04:54.793Z,7.3
2023-03-22T02:05:24.792Z,7.36
2023-03-22T02:05:54.803Z,7.38
2023-03-22T02:06:24.817Z,7.41
2023-03-22T02:06:54.815Z,7.4
2023-03-22T02:07:24.795Z,7.37
2023-03-22T02:07:54.802Z,7.35
2023-03-22T02:08:24.792Z,7.26
2023-03-22T02:08:54.790Z,7.23
2023-03-22T02:09:24.800Z,7.21
2023-03-22T02:09:54.794Z,7.24
2023-03-22T02:10:24.798Z,7.29
2023-03-22T02:10:54.789Z,7.27
2023-03-22T02:11:24.795Z,7.32
2023-03-22T02:11:54.797Z,7.3
2023-03-22T02:12:24.787Z,7.34
2023-03-22T02:12:54.789Z,7.41
2023-03-22T02:13:24.788Z,7.39
2023-03-22T02:13:54.788Z,7.38
2023-03-22T02:14:27.129Z,7.35
2023-03-22T02:14:54.788Z,7.33
2023-03-22T02:15:24.791Z,7.32
2023-03-22T02:15:54.869Z,7.31
2023-03-22T02:16:24.788Z,7.27
2023-03-22T02:16:54.791Z,7.16
2023-03-22T02:17:24.797Z,7.21
2023-03-22T02:17:54.788Z,7.28
2023-03-22T02:18:24.788Z,7.37
2023-03-22T02:18:54.799Z,7.48
2023-03-22T02:19:24.789Z,7.56
2023-03-22T02:19:54.790Z,7.65
2023-03-22T02:20:24.798Z,7.73
2023-03-22T02:20:54.791Z,7.8
2023-03-22T02:21:24.798Z,7.88
2023-03-22T02:21:54.792Z,7.95
2023-03-22T02:22:24.788Z,7.97
2023-03-22T02:22:54.790Z,7.95
2023-03-22T02:23:24.789Z,7.95
2023-03-22T02:23:54.796Z,7.99
2023-03-22T02:24:24.789Z,8.05
2023-03-22T02:24:54.790Z,8.1
2023-03-22T02:25:24.804Z,8.11
2023-03-22T02:25:54.793Z,8.1
2023-03-22T02:26:24.808Z,8.07
2023-03-22T02:26:54.799Z,8.09
2023-03-22T02:27:24.792Z,8.09
2023-03-22T02:27:54.791Z,8.09
2023-03-22T02:28:24.793Z,8.03
2023-03-22T02:28:54.793Z,8.01
2023-03-22T02:29:24.788Z,8
2023-03-22T02:29:54.792Z,7.96
2023-03-22T02:30:24.790Z,7.86
2023-03-22T02:30:54.837Z,7.79
2023-03-22T02:31:24.828Z,7.78
2023-03-22T02:31:54.801Z,7.84
2023-03-22T02:32:24.801Z,7.86
2023-03-22T02:32:54.823Z,7.83
2023-03-22T02:33:24.790Z,7.84
2023-03-22T02:33:54.790Z,7.88
2023-03-22T02:34:24.792Z,7.87
2023-03-22T02:34:54.795Z,7.85
2023-03-22T02:35:24.840Z,7.87
2023-03-22T02:35:54.821Z,7.81
2023-03-22T02:36:24.799Z,7.74
2023-03-22T02:36:54.791Z,7.71
2023-03-22T02:37:24.792Z,7.66
2023-03-22T02:37:54.795Z,7.58
2023-03-22T02:38:24.804Z,7.6
2023-03-22T02:38:54.791Z,7.68
2023-03-22T02:39:24.808Z,7.7
2023-03-22T02:39:54.792Z,7.6
2023-03-22T02:40:24.795Z,7.56
2023-03-22T02:40:54.803Z,7.59
2023-03-22T02:41:24.803Z,7.58
2023-03-22T02:41:54.795Z,7.61
2023-03-22T02:42:24.793Z,7.69
2023-03-22T02:42:54.797Z,7.78
2023-03-22T02:43:24.794Z,7.87
2023-03-22T02:43:54.798Z,7.96
2023-03-22T02:44:24.796Z,7.96
2023-03-22T02:44:54.796Z,7.96
2023-03-22T02:45:24.791Z,7.87
2023-03-22T02:45:54.789Z,7.71
2023-03-22T02:46:24.846Z,7.55
2023-03-22T02:46:54.827Z,7.43
2023-03-22T02:47:24.793Z,7.34
2023-03-22T02:47:54.835Z,7.34
2023-03-22T02:48:25.002Z,7.3
2023-03-22T02:48:54.791Z,7.27
2023-03-22T02:49:24.791Z,7.31
2023-03-22T02:49:54.790Z,7.36
2023-03-22T02:50:24.790Z,7.43
2023-03-22T02:50:54.791Z,7.48
2023-03-22T02:51:24.801Z,7.55
2023-03-22T02:51:54.792Z,7.64
2023-03-22T02:52:24.794Z,7.71
2023-03-22T02:52:54.794Z,7.77
2023-03-22T02:53:24.807Z,7.75
2023-03-22T02:53:54.792Z,7.75
2023-03-22T02:54:24.795Z,7.69
2023-03-22T02:54:54.795Z,7.61
2023-03-22T02:55:24.809Z,7.52
2023-03-22T02:55:54.799Z,7.48
2023-03-22T02:56:24.791Z,7.41
2023-03-22T02:56:54.796Z,7.31
2023-03-22T02:57:24.791Z,7.3
2023-03-22T02:57:54.791Z,7.3
2023-03-22T02:58:24.793Z,7.24
2023-03-22T02:58:54.800Z,7.22
2023-03-22T02:59:24.792Z,7.25
2023-03-22T02:59:54.795Z,7.28
2023-03-22T03:00:24.791Z,7.27
2023-03-22T03:00:54.853Z,7.28
2023-03-22T03:01:24.874Z,7.26
2023-03-22T03:01:54.889Z,7.2
2023-03-22T03:02:24.868Z,7.23
2023-03-22T03:02:54.792Z,7.31
2023-03-22T03:03:24.796Z,7.33
2023-03-22T03:03:54.797Z,7.3
2023-03-22T03:04:24.793Z,7.3
2023-03-22T03:04:54.793Z,7.32
2023-03-22T03:05:24.794Z,7.4
2023-03-22T03:05:54.792Z,7.43
2023-03-22T03:06:24.798Z,7.41
2023-03-22T03:06:54.793Z,7.32
2023-03-22T03:07:24.795Z,7.26
2023-03-22T03:07:54.796Z,7.24
2023-03-22T03:08:24.795Z,7.28
2023-03-22T03:08:54.797Z,7.41
2023-03-22T03:09:24.792Z,7.46
2023-03-22T03:09:54.800Z,7.46
2023-03-22T03:10:24.806Z,7.53
2023-03-22T03:10:54.792Z,7.62
2023-03-22T03:11:24.798Z,7.69
2023-03-22T03:11:54.795Z,7.77
2023-03-22T03:12:24.811Z,7.88
2023-03-22T03:12:54.798Z,7.95
2023-03-22T03:13:24.816Z,7.94
2023-03-22T03:13:54.792Z,7.94
2023-03-22T03:14:24.800Z,7.98
2023-03-22T03:14:54.806Z,8.07
2023-03-22T03:15:24.796Z,8.19
2023-03-22T03:15:54.850Z,8.33
2023-03-22T03:16:24.834Z,8.46
2023-03-22T03:16:54.797Z,8.54
2023-03-22T03:17:24.793Z,8.57
2023-03-22T03:17:54.794Z,8.6
2023-03-22T03:18:24.794Z,8.58
2023-03-22T03:18:54.803Z,8.62
2023-03-22T03:19:24.799Z,8.69
2023-03-22T03:19:54.797Z,8.75
2023-03-22T03:20:24.796Z,8.83
2023-03-22T03:20:54.793Z,8.89
2023-03-22T03:21:24.794Z,8.93
2023-03-22T03:21:54.798Z,8.79
2023-03-22T03:22:24.794Z,8.66
2023-03-22T03:22:54.801Z,8.54
2023-03-22T03:23:24.795Z,8.55
2023-03-22T03:23:54.802Z,8.63
2023-03-22T03:24:24.812Z,8.7
2023-03-22T03:24:54.828Z,8.8
2023-03-22T03:25:24.806Z,8.88
2023-03-22T03:25:54.795Z,8.93
2023-03-22T03:26:24.801Z,8.97
2023-03-22T03:26:54.803Z,9.03
2023-03-22T03:27:24.795Z,8.96
2023-03-22T03:27:54.803Z,8.91
2023-03-22T03:28:24.795Z,8.84
2023-03-22T03:28:54.804Z,8.85
2023-03-22T03:29:24.798Z,8.81
2023-03-22T03:29:54.795Z,8.84
2023-03-22T03:30:24.799Z,8.86
2023-03-22T03:30:54.797Z,8.83
2023-03-22T03:31:24.867Z,8.73
2023-03-22T03:31:54.912Z,8.67
2023-03-22T03:32:24.800Z,8.69
2023-03-22T03:32:54.809Z,8.77
2023-03-22T03:33:24.803Z,8.85
2023-03-22T03:33:54.800Z,8.92
2023-03-22T03:34:24.798Z,8.93
2023-03-22T03:34:54.797Z,8.81
2023-03-22T03:35:24.804Z,8.64
2023-03-22T03:35:54.850Z,8.47
2023-03-22T03:36:24.795Z,8.39
2023-03-22T03:36:54.811Z,8.4
2023-03-22T03:37:24.801Z,8.47
2023-03-22T03:37:54.797Z,8.6
2023-03-22T03:38:24.800Z,8.68
2023-03-22T03:38:54.802Z,8.66
2023-03-22T03:39:24.806Z,8.69
2023-03-22T03:39:54.805Z,8.8
2023-03-22T03:40:24.797Z,8.92
2023-03-22T03:40:54.798Z,9.06
2023-03-22T03:41:24.797Z,9.21
2023-03-22T03:41:54.797Z,9.34
2023-03-22T03:42:24.799Z,9.34
2023-03-22T03:42:54.800Z,9.37
2023-03-22T03:43:24.798Z,9.38
2023-03-22T03:43:54.805Z,9.41
2023-03-22T03:44:24.802Z,9.44
2023-03-22T03:44:54.803Z,9.46
2023-03-22T03:45:24.995Z,9.52
2023-03-22T03:45:54.929Z,9.52
2023-03-22T03:46:24.824Z,9.42
2023-03-22T03:46:54.805Z,9.33
2023-03-22T03:47:24.803Z,9.3
2023-03-22T03:47:54.848Z,9.34
2023-03-22T03:48:24.856Z,9.31
2023-03-22T03:48:54.811Z,9.24
2023-03-22T03:49:24.798Z,9.27
2023-03-22T03:49:54.804Z,9.36
2023-03-22T03:50:24.804Z,9.46
2023-03-22T03:50:54.803Z,9.58
2023-03-22T03:51:24.805Z,9.66
2023-03-22T03:51:54.808Z,9.68
2023-03-22T03:52:24.800Z,9.67
2023-03-22T03:52:54.805Z,9.65
2023-03-22T03:53:24.804Z,9.67
2023-03-22T03:53:54.813Z,9.69
2023-03-22T03:54:24.813Z,9.77
2023-03-22T03:54:54.812Z,9.86
2023-03-22T03:55:24.810Z,9.76
2023-03-22T03:55:54.802Z,9.7
2023-03-22T03:56:24.800Z,9.67
2023-03-22T03:56:54.804Z,9.65
2023-03-22T03:57:24.825Z,9.61
2023-03-22T03:57:54.810Z,9.64
2023-03-22T03:58:24.801Z,9.68
2023-03-22T03:58:54.801Z,9.73
2023-03-22T03:59:24.806Z,9.78
2023-03-22T03:59:54.827Z,9.79
2023-03-22T04:00:24.807Z,9.82
2023-03-22T04:00:54.805Z,9.77
2023-03-22T04:01:24.809Z,9.75
2023-03-22T04:01:54.816Z,9.81
2023-03-22T04:02:24.914Z,9.82
2023-03-22T04:02:54.804Z,9.63
2023-03-22T04:03:24.804Z,9.51
2023-03-22T04:03:54.838Z,9.42
2023-03-22T04:04:24.846Z,9.31
2023-03-22T04:04:54.803Z,9.28
2023-03-22T04:05:24.805Z,9.34
2023-03-22T04:05:54.803Z,9.36
2023-03-22T04:06:24.804Z,9.43
2023-03-22T04:06:54.804Z,9.46
2023-03-22T04:07:24.804Z,9.58
2023-03-22T04:07:54.804Z,9.74
2023-03-22T04:08:24.810Z,9.89
2023-03-22T04:08:54.818Z,10.01
2023-03-22T04:09:24.808Z,10.11
2023-03-22T04:09:54.805Z,10.21
2023-03-22T04:10:24.809Z,10.27
2023-03-22T04:10:54.810Z,10.26
2023-03-22T04:11:24.810Z,10.24
2023-03-22T04:11:54.808Z,10.2
2023-03-22T04:12:24.804Z,10.21
2023-03-22T04:12:54.804Z,10.24
2023-03-22T04:13:24.817Z,10.33
2023-03-22T04:13:54.809Z,10.32
2023-03-22T04:14:24.807Z,10.37
2023-03-22T04:14:54.806Z,10.47
2023-03-22T04:15:24.808Z,10.55
2023-03-22T04:15:54.812Z,10.6
2023-03-22T04:16:24.846Z,10.68
2023-03-22T04:16:54.841Z,10.79
2023-03-22T04:17:24.812Z,10.91
2023-03-22T04:17:54.815Z,10.97
2023-03-22T04:18:24.823Z,10.89
2023-03-22T04:18:54.813Z,10.81
2023-03-22T04:19:24.819Z,10.75
2023-03-22T04:19:54.811Z,10.7
2023-03-22T04:20:24.805Z,10.58
2023-03-22T04:20:54.806Z,10.53
2023-03-22T04:21:24.813Z,10.49
2023-03-22T04:21:54.808Z,10.4
2023-03-22T04:22:24.806Z,10.28
2023-03-22T04:22:54.814Z,10.23
2023-03-22T04:23:24.812Z,10.21
2023-03-22T04:23:54.813Z,10.07
2023-03-22T04:24:24.812Z,9.83
2023-03-22T04:24:54.810Z,9.57
2023-03-22T04:25:24.810Z,9.39
2023-03-22T04:25:54.845Z,9.28
2023-03-22T04:26:26.669Z,9.25
2023-03-22T04:26:54.807Z,9.26
2023-03-22T04:27:24.818Z,9.37
2023-03-22T04:27:54.806Z,9.56
2023-03-22T04:28:24.812Z,9.78
2023-03-22T04:28:54.810Z,9.96
2023-03-22T04:29:24.808Z,10.13
2023-03-22T04:29:54.817Z,10.27
2023-03-22T04:30:24.863Z,10.4
2023-03-22T04:30:54.832Z,10.44
2023-03-22T04:31:24.865Z,10.45
2023-03-22T04:31:54.810Z,10.5
2023-03-22T04:32:24.816Z,10.59
2023-03-22T04:32:54.812Z,10.73
2023-03-22T04:33:24.807Z,10.83
2023-03-22T04:33:54.818Z,10.71
2023-03-22T04:34:24.810Z,10.57
2023-03-22T04:34:54.822Z,10.54
2023-03-22T04:35:24.856Z,10.58
2023-03-22T04:35:54.850Z,10.44
2023-03-22T04:36:24.812Z,10.36
2023-03-22T04:36:54.815Z,10.25
2023-03-22T04:37:24.808Z,10.19
2023-03-22T04:37:54.814Z,10.19
2023-03-22T04:38:24.814Z,10.3
2023-03-22T04:38:54.811Z,10.45
2023-03-22T04:39:24.807Z,10.58
2023-03-22T04:39:54.808Z,10.71
2023-03-22T04:40:24.811Z,10.87
2023-03-22T04:40:54.806Z,11.03
2023-03-22T04:41:24.820Z,11.15
2023-03-22T04:41:54.807Z,11.18
2023-03-22T04:42:24.810Z,11.24
2023-03-22T04:42:54.813Z,11.22
2023-03-22T04:43:24.807Z,11.17
2023-03-22T04:43:54.817Z,11.08
2023-03-22T04:44:24.806Z,11.03
2023-03-22T04:44:54.812Z,11.01
2023-03-22T04:45:24.813Z,11.05
2023-03-22T04:45:55.105Z,11.14
2023-03-22T04:46:24.906Z,11.2
2023-03-22T04:46:54.807Z,11.25
2023-03-22T04:47:24.816Z,11.3
2023-03-22T04:47:54.885Z,11.32
2023-03-22T04:48:24.806Z,11.29
2023-03-22T04:48:54.832Z,11.13
2023-03-22T04:49:24.814Z,10.76
2023-03-22T04:49:54.810Z,10.56
2023-03-22T04:50:24.811Z,10.46
2023-03-22T04:50:54.828Z,10.43
2023-03-22T04:51:24.814Z,10.46
2023-03-22T04:51:54.809Z,10.53
2023-03-22T04:52:24.853Z,10.59
2023-03-22T04:52:54.823Z,10.66
2023-03-22T04:53:24.823Z,10.74
2023-03-22T04:53:54.822Z,10.82
2023-03-22T04:54:24.810Z,10.89
2023-03-22T04:54:54.815Z,10.93
2023-03-22T04:55:24.809Z,10.93
2023-03-22T04:55:54.809Z,10.91
2023-03-22T04:56:24.839Z,10.81
2023-03-22T04:56:54.814Z,10.76
2023-03-22T04:57:24.824Z,10.72
2023-03-22T04:57:54.918Z,10.68
2023-03-22T04:58:24.812Z,10.62
2023-03-22T04:58:54.809Z,10.54
2023-03-22T04:59:24.809Z,10.48
2023-03-22T04:59:54.808Z,10.29
2023-03-22T05:00:24.808Z,10.2
2023-03-22T05:00:54.809Z,10.05
2023-03-22T05:01:24.859Z,9.86
2023-03-22T05:01:54.866Z,9.75
2023-03-22T05:02:24.875Z,9.67
2023-03-22T05:02:54.887Z,9.64
2023-03-22T05:03:24.815Z,9.68
2023-03-22T05:03:54.808Z,9.76
2023-03-22T05:04:24.824Z,9.71
2023-03-22T05:04:54.810Z,9.69
2023-03-22T05:05:24.827Z,9.71
2023-03-22T05:05:54.822Z,9.7
2023-03-22T05:06:24.810Z,9.67
2023-03-22T05:06:54.812Z,9.61
2023-03-22T05:07:24.812Z,9.53
2023-03-22T05:07:54.819Z,9.35
2023-03-22T05:08:24.841Z,9.25
2023-03-22T05:08:54.816Z,9.21
2023-03-22T05:09:24.826Z,9.27
2023-03-22T05:09:54.810Z,9.2
2023-03-22T05:10:24.810Z,9.22
2023-03-22T05:10:54.810Z,9.17
2023-03-22T05:11:24.808Z,9.13
2023-03-22T05:11:54.813Z,9.06
2023-03-22T05:12:24.808Z,9.08
2023-03-22T05:12:54.813Z,9.03
2023-03-22T05:13:24.820Z,8.85
2023-03-22T05:13:54.812Z,8.83
2023-03-22T05:14:24.845Z,8.86
2023-03-22T05:14:54.824Z,8.99
2023-03-22T05:15:24.819Z,9.14
2023-03-22T05:15:54.845Z,9.25
2023-03-22T05:16:24.951Z,9.38
2023-03-22T05:16:55.012Z,9.45
2023-03-22T05:17:24.818Z,9.46
2023-03-22T05:17:54.816Z,9.45
2023-03-22T05:18:24.808Z,9.43
2023-03-22T05:18:54.810Z,9.51
2023-03-22T05:19:24.853Z,9.66
2023-03-22T05:19:54.811Z,9.78
2023-03-22T05:20:24.812Z,9.84
2023-03-22T05:20:54.810Z,9.91
2023-03-22T05:21:24.815Z,9.98
2023-03-22T05:21:54.822Z,10.08
2023-03-22T05:22:24.829Z,10.15
2023-03-22T05:22:54.818Z,10.17
2023-03-22T05:23:24.822Z,10.17
2023-03-22T05:23:54.815Z,9.92
2023-03-22T05:24:24.820Z,9.83
2023-03-22T05:24:54.811Z,9.75
2023-03-22T05:25:24.823Z,9.66
2023-03-22T05:25:54.811Z,9.62
2023-03-22T05:26:24.815Z,9.7
2023-03-22T05:26:54.817Z,9.82
2023-03-22T05:27:24.815Z,9.94
2023-03-22T05:27:54.811Z,10.11
2023-03-22T05:28:24.815Z,10.11
2023-03-22T05:28:54.814Z,10.12
2023-03-22T05:29:24.816Z,10
2023-03-22T05:29:54.811Z,9.83
2023-03-22T05:30:24.814Z,9.73
2023-03-22T05:30:57.040Z,9.7
2023-03-22T05:31:24.859Z,9.78
2023-03-22T05:31:54.888Z,9.88
2023-03-22T05:32:24.814Z,9.92
2023-03-22T05:32:54.812Z,9.86
2023-03-22T05:33:24.817Z,9.78
2023-03-22T05:33:54.816Z,9.82
2023-03-22T05:34:24.819Z,9.93
2023-03-22T05:34:54.815Z,10.04
2023-03-22T05:35:24.909Z,10.19
2023-03-22T05:35:54.851Z,10.33
2023-03-22T05:36:24.819Z,10.43
2023-03-22T05:36:54.829Z,10.54
2023-03-22T05:37:24.823Z,10.72
2023-03-22T05:37:54.819Z,10.77
2023-03-22T05:38:24.825Z,10.81
2023-03-22T05:38:54.820Z,10.79
2023-03-22T05:39:24.825Z,10.76
2023-03-22T05:39:54.822Z,10.73
2023-03-22T05:40:24.820Z,10.75
2023-03-22T05:40:54.831Z,10.79
2023-03-22T05:41:24.837Z,10.72
2023-03-22T05:41:54.825Z,10.66
2023-03-22T05:42:24.818Z,10.55
2023-03-22T05:42:54.827Z,10.53
2023-03-22T05:43:24.825Z,10.51
2023-03-22T05:43:54.819Z,10.4
2023-03-22T05:44:24.826Z,10.31
2023-03-22T05:44:54.836Z,10.19
2023-03-22T05:45:24.819Z,9.96
2023-03-22T05:45:54.827Z,9.93
2023-03-22T05:46:24.836Z,9.93
2023-03-22T05:46:54.876Z,9.87
2023-03-22T05:47:24.823Z,9.89
2023-03-22T05:47:54.842Z,9.87
2023-03-22T05:48:24.857Z,9.87
2023-03-22T05:48:54.823Z,9.96
2023-03-22T05:49:24.821Z,10.12
2023-03-22T05:49:54.820Z,10.32
2023-03-22T05:50:24.824Z,10.46
2023-03-22T05:50:54.829Z,10.57
2023-03-22T05:51:24.825Z,10.68
2023-03-22T05:51:54.825Z,10.78
2023-03-22T05:52:24.832Z,10.9
2023-03-22T05:52:54.822Z,10.93
2023-03-22T05:53:24.826Z,10.87
2023-03-22T05:53:54.823Z,10.78
2023-03-22T05:54:24.823Z,10.74
2023-03-22T05:54:54.822Z,10.7
2023-03-22T05:55:24.822Z,10.58
2023-03-22T05:55:54.821Z,10.57
2023-03-22T05:56:24.907Z,10.5
2023-03-22T05:56:55.780Z,10.38
2023-03-22T05:57:24.831Z,10.36
2023-03-22T05:57:54.836Z,10.21
2023-03-22T05:58:24.824Z,10.18
2023-03-22T05:58:54.824Z,10.18
2023-03-22T05:59:24.833Z,10.22
2023-03-22T05:59:54.826Z,10.3
2023-03-22T06:00:24.856Z,10.44
2023-03-22T06:00:54.825Z,10.5
2023-03-22T06:01:24.826Z,10.5
2023-03-22T06:01:54.864Z,10.49
2023-03-22T06:02:24.826Z,10.47
2023-03-22T06:02:54.887Z,10.38
2023-03-22T06:03:24.852Z,10.21
2023-03-22T06:03:54.842Z,10.18
2023-03-22T06:04:24.825Z,10.26
2023-03-22T06:04:54.828Z,10.33
2023-03-22T06:05:24.828Z,10.51
2023-03-22T06:05:54.933Z,10.53
2023-03-22T06:06:24.881Z,10.65
2023-03-22T06:06:54.830Z,10.74
2023-03-22T06:07:24.836Z,10.83
2023-03-22T06:07:54.826Z,10.87
2023-03-22T06:08:26.622Z,10.77
2023-03-22T06:09:01.678Z,10.77
2023-03-22T06:09:25.740Z,10.85
2023-03-22T06:09:54.827Z,11.02
2023-03-22T06:10:24.829Z,11.16
2023-03-22T06:10:54.838Z,11.21
2023-03-22T06:11:24.826Z,11.24
2023-03-22T06:11:54.832Z,11.19
2023-03-22T06:12:24.866Z,11.1
2023-03-22T06:12:54.845Z,11.13
2023-03-22T06:13:24.856Z,11.16
2023-03-22T06:13:54.826Z,11.31
2023-03-22T06:14:24.829Z,11.4
2023-03-22T06:14:54.828Z,11.42
2023-03-22T06:15:24.831Z,11.45
2023-03-22T06:15:54.830Z,11.47
2023-03-22T06:16:24.873Z,11.4
2023-03-22T06:16:54.923Z,11.34
2023-03-22T06:17:24.834Z,11.39
2023-03-22T06:17:54.830Z,11.41
2023-03-22T06:18:24.832Z,11.48
2023-03-22T06:18:54.835Z,11.44
2023-03-22T06:19:24.828Z,11.48
2023-03-22T06:19:54.831Z,11.49
2023-03-22T06:20:24.833Z,11.5
2023-03-22T06:20:54.831Z,11.62
2023-03-22T06:21:24.832Z,11.64
2023-03-22T06:21:54.833Z,11.59
2023-03-22T06:22:24.834Z,11.6
2023-03-22T06:22:54.832Z,11.53
2023-03-22T06:23:24.837Z,11.51
2023-03-22T06:23:54.830Z,11.6
2023-03-22T06:24:24.835Z,11.73
2023-03-22T06:24:54.834Z,11.96
2023-03-22T06:25:24.838Z,12.05
2023-03-22T06:25:54.838Z,12.17
2023-03-22T06:26:24.848Z,12.12
2023-03-22T06:26:54.830Z,12
2023-03-22T06:27:24.834Z,11.78
2023-03-22T06:27:54.829Z,11.68
2023-03-22T06:28:24.832Z,11.59
2023-03-22T06:28:54.828Z,11.58
2023-03-22T06:29:24.832Z,11.61
2023-03-22T06:29:54.883Z,11.71
2023-03-22T06:30:24.974Z,11.82
2023-03-22T06:30:54.887Z,11.84
2023-03-22T06:31:24.836Z,11.75
2023-03-22T06:31:54.826Z,11.64
2023-03-22T06:32:24.826Z,11.49
2023-03-22T06:32:54.830Z,11.51
2023-03-22T06:33:24.826Z,11.52
2023-03-22T06:33:55.932Z,11.42
2023-03-22T06:34:24.825Z,11.37
2023-03-22T06:34:54.826Z,11.4
2023-03-22T06:35:24.840Z,11.47
2023-03-22T06:35:54.862Z,11.69
2023-03-22T06:36:24.827Z,11.88
2023-03-22T06:36:54.833Z,12.04
2023-03-22T06:37:24.827Z,12.51